Terminal Aerodrome Forecast
Issued by NWS

Home | Current Version | Previous Version | Text Only | Print | Product List | Glossary On
Versions: 1 2 3 4 5 6 7 8 9 10 11 12 13 14 15 16 17 18 19 20 21 22 23 24 25
000
FTUS43 KDLH 292300 RRA
TAFHIB
TAF
KHIB 292341Z 3000/3024 01003KT P6SM OVC012
     FM300200 VRB02KT 1SM BR OVC006
     FM300600 36005KT 1/2SM FG BKN001
     FM301200 03005KT 3SM BR BKN005
     FM301500 02007KT P6SM BKN015
     FM301800 01004KT P6SM BKN025=

USA.gov is the U.S. government's official web portal to all federal, state and local government web resources and services.